Time;durP1;ratioP1;P1;durP2;ratioP2;P2;SDS_P1;SDS_P2;PMS_P1;PMS_P2;Temp;Humidity;BMP_temperature;BMP_pressure;BME280_temperature;BME280_humidity;BME280_pressure;Samples;Min_cycle;Max_cycle;Signal;HPM_P1;HPM_P2
2022/01/11 09:56:34;;;;;;;2.75;2.53;;;-0.30;99.90;;;;;;4414190;32;20083;-68
2022/01/11 09:59:00;;;;;;;1.02;1.02;;;-0.40;99.90;;;;;;4405594;32;20112;-68
2022/01/11 10:01:26;;;;;;;3.95;1.90;;;-0.40;99.90;;;;;;4409561;32;20190;-68
2022/01/11 10:04:10;;;;;;;2.83;2.30;;;-0.40;99.90;;;;;;4413062;32;20572;-69
2022/01/11 10:06:41;;;;;;;1.10;1.08;;;-0.40;99.90;;;;;;4413023;32;20088;-67
2022/01/11 10:09:09;;;;;;;3.05;2.10;;;-0.40;99.90;;;;;;4414443;32;20069;-68
2022/01/11 10:11:38;;;;;;;1.92;1.77;;;-0.30;99.90;;;;;;4422194;32;20084;-68
2022/01/11 10:14:25;;;;;;;2.50;1.45;;;-0.20;99.90;;;;;;4414820;32;20089;-68
2022/01/11 10:17:05;;;;;;;1.52;1.42;;;-0.20;99.90;;;;;;4397703;32;20116;-68
2022/01/11 10:19:32;;;;;;;1.10;0.95;;;-0.20;99.90;;;;;;4414660;32;20991;-69
2022/01/11 10:22:01;;;;;;;2.33;1.62;;;-0.30;99.90;;;;;;4415375;32;20832;-68
2022/01/11 10:24:32;;;;;;;0.93;0.85;;;-0.30;99.90;;;;;;4420525;32;20666;-69
2022/01/11 10:27:01;;;;;;;8.25;2.65;;;-0.20;99.90;;;;;;4418648;32;20836;-68
2022/01/11 10:29:30;;;;;;;2.92;1.83;;;-0.30;99.90;;;;;;4423561;32;20105;-67
2022/01/11 10:31:58;;;;;;;1.65;1.20;;;-0.20;99.90;;;;;;4428120;32;20167;-67
2022/01/11 10:34:26;;;;;;;2.80;2.12;;;-0.10;99.90;;;;;;4424222;32;20065;-67
2022/01/11 10:36:51;;;;;;;2.53;1.77;;;-0.20;99.90;;;;;;4425589;32;20074;-67
2022/01/11 10:39:28;;;;;;;6.75;1.92;;;-0.30;99.90;;;;;;4426698;32;20127;-67
2022/01/11 10:41:54;;;;;;;0.75;0.75;;;-0.10;99.90;;;;;;4430440;32;20089;-67
2022/01/11 10:44:42;;;;;;;2.08;1.85;;;0.00;99.90;;;;;;4424313;32;20140;-66
2022/01/11 10:47:08;;;;;;;0.82;0.82;;;-0.10;99.90;;;;;;4420943;32;20159;-65
2022/01/11 10:49:35;;;;;;;3.83;2.92;;;-0.20;99.90;;;;;;4435950;32;20558;-67
2022/01/11 10:52:19;;;;;;;2.15;1.58;;;-0.30;99.90;;;;;;4430802;32;20179;-67
2022/01/11 10:54:45;;;;;;;1.90;1.70;;;-0.20;99.90;;;;;;4425730;32;20139;-67
2022/01/11 10:57:18;;;;;;;15.32;3.03;;;-0.10;99.90;;;;;;4425914;32;20080;-67
2022/01/11 11:00:02;;;;;;;1.55;1.30;;;-0.10;99.90;;;;;;4427642;32;20065;-66
2022/01/11 11:02:28;;;;;;;1.48;0.95;;;0.00;99.90;;;;;;4432551;32;20096;-67
2022/01/11 11:04:55;;;;;;;5.85;2.40;;;0.10;99.90;;;;;;4428264;32;20490;-67
2022/01/11 11:07:23;;;;;;;1.02;1.02;;;0.00;99.90;;;;;;4426103;32;20204;-67
2022/01/11 11:09:50;;;;;;;2.12;1.67;;;0.00;99.90;;;;;;4418983;32;20069;-69
2022/01/11 11:12:22;;;;;;;1.70;1.60;;;-0.10;99.90;;;;;;4430980;32;20122;-67
2022/01/11 11:14:49;;;;;;;0.88;0.88;;;0.00;99.90;;;;;;4429447;32;20387;-67
2022/01/11 11:17:33;;;;;;;0.90;0.90;;;-0.10;99.90;;;;;;4410631;32;20089;-65
2022/01/11 11:20:05;;;;;;;5.30;2.40;;;0.00;99.90;;;;;;4426411;32;20580;-66
2022/01/11 11:22:31;;;;;;;1.35;1.25;;;0.00;99.90;;;;;;4423977;32;20069;-66
2022/01/11 11:24:57;;;;;;;1.55;1.37;;;-0.10;99.90;;;;;;4428366;32;20591;-69
2022/01/11 11:27:24;;;;;;;1.05;1.05;;;-0.10;99.90;;;;;;4427966;32;20492;-69
2022/01/11 11:29:51;;;;;;;1.35;1.25;;;-0.10;99.90;;;;;;4425997;32;20097;-68
2022/01/11 11:32:19;;;;;;;2.28;1.62;;;-0.10;99.90;;;;;;4428154;32;20065;-70
2022/01/11 11:34:49;;;;;;;5.15;1.40;;;-0.10;99.90;;;;;;4416213;32;20101;-68
2022/01/11 11:37:19;;;;;;;6.87;3.12;;;-0.20;99.90;;;;;;4420604;32;20592;-67
2022/01/11 11:39:46;;;;;;;1.80;1.27;;;-0.30;99.90;;;;;;4416213;32;20565;-68
2022/01/11 11:42:18;;;;;;;0.73;0.73;;;-0.20;99.90;;;;;;4416526;32;20732;-68
2022/01/11 11:44:46;;;;;;;1.52;1.45;;;-0.30;99.90;;;;;;4422345;32;20081;-67
2022/01/11 11:47:11;;;;;;;2.05;1.83;;;-0.20;99.90;;;;;;4423264;32;20775;-68
2022/01/11 11:49:47;;;;;;;2.40;2.20;;;-0.10;99.90;;;;;;4425991;32;20065;-68
2022/01/11 11:52:32;;;;;;;1.92;1.83;;;0.00;99.90;;;;;;4411670;32;20136;-67
2022/01/11 11:55:04;;;;;;;1.70;1.60;;;0.00;99.90;;;;;;4411302;32;20621;-68
2022/01/11 11:57:34;;;;;;;4.62;2.03;;;0.10;99.90;;;;;;4422664;32;20109;-68
2022/01/11 12:00:08;;;;;;;1.00;1.00;;;0.10;99.90;;;;;;4428030;32;20482;-68
2022/01/11 12:02:44;;;;;;;10.85;3.87;;;0.10;99.90;;;;;;4432559;32;20064;-68
2022/01/11 12:05:12;;;;;;;3.60;1.23;;;0.10;99.90;;;;;;4415337;32;20534;-67
2022/01/11 12:07:43;;;;;;;0.82;0.82;;;0.10;99.90;;;;;;4432688;32;20143;-68
2022/01/11 12:10:17;;;;;;;3.05;1.23;;;0.00;99.90;;;;;;4428868;32;20082;-68
2022/01/11 12:12:54;;;;;;;3.03;1.70;;;-0.10;99.90;;;;;;4410544;32;20493;-66
2022/01/11 12:15:31;;;;;;;2.33;1.75;;;0.00;99.90;;;;;;4403018;32;20065;-68
2022/01/11 12:18:00;;;;;;;0.90;0.90;;;0.00;99.90;;;;;;4429162;32;20137;-68
2022/01/11 12:20:47;;;;;;;2.67;1.77;;;0.10;99.90;;;;;;4427949;32;20081;-67
2022/01/11 12:23:20;;;;;;;0.98;0.98;;;0.20;99.90;;;;;;4414564;32;22076;-67
2022/01/11 12:25:51;;;;;;;2.92;2.17;;;0.40;99.90;;;;;;4428971;32;20085;-68
2022/01/11 12:28:20;;;;;;;3.92;2.20;;;0.40;99.90;;;;;;4429272;32;20418;-67
2022/01/11 12:30:46;;;;;;;0.90;0.90;;;0.30;99.90;;;;;;4411204;32;20073;-67
2022/01/11 12:33:16;;;;;;;3.30;2.05;;;0.30;99.90;;;;;;4429466;32;21071;-68
2022/01/11 12:36:03;;;;;;;1.30;1.23;;;0.30;99.90;;;;;;4422711;32;20077;-67
2022/01/11 12:38:33;;;;;;;0.68;0.68;;;0.10;99.90;;;;;;4416609;32;20101;-68
2022/01/11 12:41:29;;;;;;;1.02;1.02;;;-0.10;99.90;;;;;;4429287;32;20101;-67
2022/01/11 12:44:23;;;;;;;5.28;2.35;;;0.00;99.90;;;;;;4419477;32;20860;-67
2022/01/11 12:47:08;;;;;;;1.55;1.35;;;0.00;99.90;;;;;;4415667;32;20101;-67
2022/01/11 12:49:39;;;;;;;4.82;2.30;;;0.10;99.90;;;;;;4427655;32;20887;-69
2022/01/11 12:52:14;;;;;;;5.00;2.20;;;0.20;99.90;;;;;;4416838;32;20590;-68
2022/01/11 12:54:47;;;;;;;0.98;0.98;;;0.30;99.90;;;;;;4432909;32;20410;-68
2022/01/11 12:57:15;;;;;;;3.97;2.05;;;0.20;99.90;;;;;;4433188;32;20112;-68
2022/01/11 12:59:45;;;;;;;2.28;1.40;;;0.50;99.90;;;;;;4430550;32;20519;-69
2022/01/11 13:02:13;;;;;;;1.08;1.08;;;0.50;99.90;;;;;;4428150;32;20097;-68
2022/01/11 13:04:46;;;;;;;28.85;2.83;;;0.70;99.90;;;;;;4427718;32;20077;-68
2022/01/11 13:07:17;;;;;;;3.25;2.60;;;0.80;99.90;;;;;;4430920;32;20143;-65
2022/01/11 13:09:44;;;;;;;;;;;1.00;99.90;;;;;;4431913;32;20474;-63
2022/01/11 13:12:10;;;;;;;2.92;1.95;;;1.30;99.90;;;;;;4429188;32;19968;-63
2022/01/11 13:14:40;;;;;;;1.65;1.55;;;1.40;99.90;;;;;;4430164;32;20160;-65
2022/01/11 13:17:07;;;;;;;0.60;0.60;;;1.00;99.90;;;;;;4430585;32;20253;-64
2022/01/11 13:19:40;;;;;;;0.90;0.90;;;1.00;99.90;;;;;;4427359;32;20099;-65
2022/01/11 13:22:12;;;;;;;2.42;1.80;;;1.00;99.90;;;;;;4431804;32;21187;-64
2022/01/11 13:24:53;;;;;;;0.85;0.85;;;1.10;99.90;;;;;;4425774;32;20884;-64
2022/01/11 13:27:18;;;;;;;;;;;1.10;99.90;;;;;;4426289;32;20501;-70
2022/01/11 13:29:44;;;;;;;0.98;0.98;;;1.00;99.90;;;;;;4428941;32;19975;-65
2022/01/11 13:32:10;;;;;;;2.80;2.50;;;1.00;99.90;;;;;;4422160;32;20076;-64
2022/01/11 13:34:37;;;;;;;1.90;1.33;;;1.20;99.90;;;;;;4422674;32;20241;-64
2022/01/11 13:37:04;;;;;;;6.20;1.77;;;1.30;99.90;;;;;;4436933;32;20069;-64
2022/01/11 13:39:36;;;;;;;1.65;1.45;;;1.10;99.90;;;;;;4437520;32;20712;-64
2022/01/11 13:42:04;;;;;;;0.93;0.93;;;1.00;99.90;;;;;;4442252;32;20077;-65
2022/01/11 13:44:32;;;;;;;1.42;1.33;;;0.80;99.90;;;;;;4438724;32;20077;-64
2022/01/11 13:47:04;;;;;;;2.30;1.90;;;0.80;99.90;;;;;;4437599;32;20085;-64
2022/01/11 13:49:35;;;;;;;2.35;1.52;;;0.70;99.90;;;;;;4436745;32;20100;-65
2022/01/11 13:52:06;;;;;;;1.65;1.55;;;0.80;99.90;;;;;;4439726;32;20080;-65
2022/01/11 13:54:36;;;;;;;1.12;1.12;;;0.80;99.90;;;;;;4437417;32;20162;-65
2022/01/11 13:57:04;;;;;;;0.95;0.95;;;0.80;99.90;;;;;;4423034;32;20135;-65
2022/01/11 13:59:30;;;;;;;2.97;2.03;;;0.90;99.90;;;;;;4439024;32;20605;-64
2022/01/11 14:02:16;;;;;;;1.85;1.37;;;0.80;99.90;;;;;;4435946;32;20169;-63
2022/01/11 14:04:45;;;;;;;1.35;1.27;;;0.80;99.90;;;;;;4435526;32;20072;-65
2022/01/11 14:07:13;;;;;;;2.22;1.58;;;0.60;99.90;;;;;;4440193;32;20085;-65
2022/01/11 14:09:48;;;;;;;1.23;1.12;;;0.70;99.90;;;;;;4436438;32;20131;-65
2022/01/11 14:12:22;;;;;;;1.00;0.95;;;0.80;99.90;;;;;;4438863;32;20069;-65
2022/01/11 14:14:53;;;;;;;2.42;1.70;;;0.80;99.90;;;;;;4423131;32;20073;-65
2022/01/11 14:17:21;;;;;;;0.88;0.88;;;0.60;99.90;;;;;;4438279;32;20208;-65
2022/01/11 14:19:51;;;;;;;0.70;0.70;;;0.50;99.90;;;;;;4439355;32;20073;-64
2022/01/11 14:22:18;;;;;;;0.98;0.98;;;0.70;99.90;;;;;;4438926;32;20476;-64
2022/01/11 14:24:49;;;;;;;1.10;1.00;;;0.70;99.90;;;;;;4438459;32;20521;-64
2022/01/11 14:27:19;;;;;;;1.73;1.10;;;0.60;99.90;;;;;;4439747;32;20073;-64
2022/01/11 14:30:11;;;;;;;1.23;0.98;;;0.60;99.90;;;;;;4437999;32;20089;-64
2022/01/11 14:32:47;;;;;;;1.00;1.00;;;0.60;99.90;;;;;;4436967;32;20057;-64
2022/01/11 14:35:14;;;;;;;1.52;1.35;;;0.60;99.90;;;;;;4437564;32;20076;-64
2022/01/11 14:37:40;;;;;;;0.70;0.70;;;0.50;99.90;;;;;;4422587;32;20456;-64
2022/01/11 14:40:29;;;;;;;0.73;0.73;;;0.40;99.90;;;;;;4438249;32;20094;-64
2022/01/11 14:43:11;;;;;;;4.30;1.98;;;0.50;99.90;;;;;;4428242;32;20085;-64
2022/01/11 14:45:48;;;;;;;5.28;1.33;;;0.60;99.90;;;;;;4426544;32;20073;-64
2022/01/11 14:48:27;;;;;;;2.62;1.73;;;0.50;99.90;;;;;;4437126;32;20078;-65
2022/01/11 14:50:53;;;;;;;1.67;1.55;;;0.50;99.90;;;;;;4439079;32;20101;-65
2022/01/11 14:53:18;;;;;;;1.35;1.25;;;0.30;99.90;;;;;;4435422;32;20486;-65
2022/01/11 14:55:49;;;;;;;0.75;0.75;;;0.40;99.90;;;;;;4438521;32;20069;-65
2022/01/11 14:58:19;;;;;;;8.05;2.22;;;0.20;99.90;;;;;;4439123;32;20080;-65
2022/01/11 15:00:50;;;;;;;1.05;1.05;;;0.40;99.90;;;;;;4437629;32;20089;-65
2022/01/11 15:03:37;;;;;;;8.90;1.55;;;0.30;99.90;;;;;;4438176;32;20077;-65
2022/01/11 15:06:06;;;;;;;1.92;1.83;;;0.10;99.90;;;;;;4424477;32;20497;-65
2022/01/11 15:08:34;;;;;;;4.87;2.35;;;0.20;99.90;;;;;;4439160;32;20120;-65
2022/01/11 15:11:12;;;;;;;1.33;1.23;;;0.10;99.90;;;;;;4438344;32;20078;-65
2022/01/11 15:13:40;;;;;;;6.32;1.77;;;0.00;99.90;;;;;;4437109;32;20097;-65
2022/01/11 15:16:07;;;;;;;6.43;2.75;;;0.00;99.90;;;;;;4423493;32;20072;-64
2022/01/11 15:18:32;;;;;;;1.23;1.17;;;0.00;99.90;;;;;;4434723;32;20064;-65
2022/01/11 15:20:59;;;;;;;5.18;1.65;;;-0.10;99.90;;;;;;4441248;32;20482;-65
2022/01/11 15:23:24;;;;;;;1.25;1.10;;;0.00;99.90;;;;;;4439060;32;20105;-65
2022/01/11 15:25:51;;;;;;;3.80;1.73;;;-0.10;99.90;;;;;;4436891;32;20077;-65
2022/01/11 15:28:16;;;;;;;0.88;0.88;;;-0.10;99.90;;;;;;4437506;32;20081;-65
2022/01/11 15:30:42;;;;;;;1.58;1.40;;;0.00;99.90;;;;;;4435354;32;20093;-65
2022/01/11 15:33:07;;;;;;;9.05;3.30;;;-0.20;99.90;;;;;;4428583;32;20090;-65
2022/01/11 15:35:33;;;;;;;6.30;3.58;;;-0.30;99.90;;;;;;4423988;32;20290;-65
2022/01/11 15:38:00;;;;;;;1.37;1.27;;;-0.20;99.90;;;;;;4425633;32;20440;-65
2022/01/11 15:40:26;;;;;;;1.17;1.17;;;-0.30;99.90;;;;;;4424079;32;20085;-64
2022/01/11 15:42:52;;;;;;;1.52;1.42;;;-0.40;99.90;;;;;;4423979;32;20123;-65
2022/01/11 15:45:18;;;;;;;1.02;1.00;;;-0.30;99.90;;;;;;4425799;32;20077;-64
2022/01/11 15:47:44;;;;;;;6.05;2.20;;;-0.20;99.90;;;;;;4426492;32;20061;-65
2022/01/11 15:50:11;;;;;;;2.50;1.83;;;-0.30;99.90;;;;;;4428441;32;20077;-65
2022/01/11 15:52:36;;;;;;;1.45;1.35;;;-0.40;99.90;;;;;;4422873;32;20409;-65
2022/01/11 15:55:02;;;;;;;1.30;1.20;;;-0.40;99.90;;;;;;4426537;32;20116;-65
2022/01/11 15:57:28;;;;;;;1.15;0.82;;;-0.50;99.90;;;;;;4423920;32;20421;-65
2022/01/11 15:59:53;;;;;;;2.40;2.20;;;-0.40;99.90;;;;;;4425633;32;20085;-65
2022/01/11 16:02:21;;;;;;;1.60;1.50;;;-0.30;99.90;;;;;;4425562;32;20078;-65
2022/01/11 16:04:47;;;;;;;1.27;1.25;;;-0.40;99.90;;;;;;4425441;32;20086;-65
2022/01/11 16:07:12;;;;;;;2.55;1.73;;;-0.40;99.90;;;;;;4425978;32;20065;-65
2022/01/11 16:09:38;;;;;;;2.83;1.90;;;-0.50;99.90;;;;;;4411283;32;20072;-65
2022/01/11 16:12:04;;;;;;;5.55;3.00;;;-0.50;99.90;;;;;;4425410;32;20065;-65
2022/01/11 16:14:34;;;;;;;3.28;2.35;;;-0.50;99.90;;;;;;4425245;32;20432;-65
2022/01/11 16:16:59;;;;;;;3.50;1.55;;;-0.60;99.90;;;;;;4425003;32;20077;-64
2022/01/11 16:19:25;;;;;;;1.12;1.02;;;-0.60;99.90;;;;;;4426084;32;20069;-64
2022/01/11 16:21:50;;;;;;;5.43;1.85;;;-0.50;99.90;;;;;;4425965;32;20089;-65
2022/01/11 16:24:19;;;;;;;0.93;0.93;;;-0.40;99.90;;;;;;4425639;32;20825;-65
2022/01/11 16:26:44;;;;;;;1.05;1.05;;;-0.30;99.90;;;;;;4408555;32;20077;-64
2022/01/11 16:29:10;;;;;;;2.47;2.28;;;-0.30;99.90;;;;;;4425203;32;20069;-65
2022/01/11 16:31:37;;;;;;;7.32;1.80;;;-0.20;99.90;;;;;;4423130;32;20123;-64
2022/01/11 16:34:03;;;;;;;4.57;2.45;;;-0.40;99.90;;;;;;4431194;32;20073;-64
2022/01/11 16:36:29;;;;;;;1.80;1.67;;;-0.50;99.90;;;;;;4440522;32;20433;-66
2022/01/11 16:38:59;;;;;;;3.40;1.65;;;-0.50;99.90;;;;;;4442035;32;20080;-64
2022/01/11 16:42:41;;;;;;;4.17;2.50;;;-0.60;99.90;;;;;;4442128;32;20077;-65
2022/01/11 16:44:10;;;;;;;2.37;2.15;;;-0.50;99.90;;;;;;4429191;32;20142;-64
2022/01/11 16:46:39;;;;;;;9.68;1.95;;;-0.60;99.90;;;;;;4441986;32;20543;-65
2022/01/11 16:49:06;;;;;;;1.60;1.50;;;-0.70;99.90;;;;;;4442292;32;20065;-65
2022/01/11 16:51:32;;;;;;;1.33;1.23;;;-0.70;99.90;;;;;;4439098;32;20716;-65
2022/01/11 16:53:58;;;;;;;2.83;1.85;;;-0.60;99.90;;;;;;4441136;32;20141;-65
2022/01/11 16:56:23;;;;;;;1.98;1.80;;;-0.50;99.90;;;;;;4439502;32;20399;-65
2022/01/11 16:58:49;;;;;;;6.18;1.52;;;-0.50;99.90;;;;;;4439990;32;20100;-65
2022/01/11 17:01:14;;;;;;;1.48;1.37;;;-0.60;99.90;;;;;;4443537;32;20101;-65
2022/01/11 17:03:40;;;;;;;4.90;3.55;;;-0.70;99.90;;;;;;4444798;32;20144;-64
2022/01/11 17:06:05;;;;;;;2.53;2.28;;;-0.70;99.90;;;;;;4444746;32;20078;-65
2022/01/11 17:08:31;;;;;;;2.17;1.60;;;-0.70;99.90;;;;;;4445081;32;20084;-65
2022/01/11 17:10:56;;;;;;;20.88;2.40;;;-0.60;99.90;;;;;;4445126;32;20069;-65
2022/01/11 17:13:22;;;;;;;0.62;0.62;;;-0.60;99.90;;;;;;4444020;32;20493;-65
2022/01/11 17:15:47;;;;;;;1.85;1.50;;;-0.60;99.90;;;;;;4443848;32;20098;-65
2022/01/11 17:18:13;;;;;;;1.17;1.15;;;-0.70;99.90;;;;;;4443529;32;20081;-65
2022/01/11 17:20:38;;;;;;;2.15;1.58;;;-0.80;99.90;;;;;;4447220;32;20066;-65
2022/01/11 17:23:04;;;;;;;3.33;2.55;;;-1.00;99.90;;;;;;4443978;32;20443;-65
2022/01/11 17:25:30;;;;;;;1.27;1.20;;;-0.90;99.90;;;;;;4443010;32;20096;-66
2022/01/11 17:27:56;;;;;;;3.85;2.00;;;-1.00;99.90;;;;;;4443331;32;20125;-66
2022/01/11 17:30:22;;;;;;;1.75;1.62;;;-0.90;99.90;;;;;;4439135;32;20090;-66
2022/01/11 17:32:51;;;;;;;0.77;0.77;;;-0.90;99.90;;;;;;4443156;32;20068;-66
2022/01/11 17:35:18;;;;;;;2.25;1.65;;;-0.90;99.90;;;;;;4443145;32;20081;-65
2022/01/11 17:37:44;;;;;;;1.85;1.75;;;-0.90;99.90;;;;;;4443788;32;20160;-66
2022/01/11 17:40:12;;;;;;;0.75;0.75;;;-0.90;99.90;;;;;;4443409;32;20057;-66
2022/01/11 17:42:41;;;;;;;1.40;1.30;;;-0.80;99.90;;;;;;4443342;32;20090;-66
2022/01/11 17:45:08;;;;;;;15.55;2.58;;;-0.80;99.90;;;;;;4443033;32;20138;-66
2022/01/11 17:47:33;;;;;;;1.17;1.17;;;-0.70;99.90;;;;;;4443560;32;20168;-66
2022/01/11 17:50:02;;;;;;;0.85;0.85;;;-0.70;99.90;;;;;;4445015;32;20550;-66
2022/01/11 17:52:29;;;;;;;5.22;3.05;;;-0.60;99.90;;;;;;4441019;32;20089;-66
2022/01/11 17:54:54;;;;;;;1.00;0.98;;;-0.70;99.90;;;;;;4442880;32;20077;-66
2022/01/11 17:57:20;;;;;;;0.88;0.88;;;-0.80;99.90;;;;;;4442743;32;20085;-65
2022/01/11 17:59:46;;;;;;;0.77;0.77;;;-0.90;99.90;;;;;;4438974;32;20064;-65
2022/01/11 18:02:13;;;;;;;1.42;1.08;;;-1.00;99.90;;;;;;4444214;32;20576;-66
2022/01/11 18:04:39;;;;;;;0.80;0.80;;;-0.90;99.90;;;;;;4443159;32;20414;-65
2022/01/11 18:07:04;;;;;;;3.22;1.83;;;-0.90;99.90;;;;;;4443785;32;20127;-65
2022/01/11 18:09:30;;;;;;;1.10;1.10;;;-0.90;99.90;;;;;;4444015;32;20068;-66
2022/01/11 18:11:58;;;;;;;0.95;0.95;;;-1.20;99.90;;;;;;4442559;32;20395;-66
2022/01/11 18:14:23;;;;;;;1.42;1.33;;;-1.10;99.90;;;;;;4442571;32;20082;-66
2022/01/11 18:16:51;;;;;;;1.60;1.50;;;-1.00;99.90;;;;;;4441046;32;20065;-66
2022/01/11 18:19:17;;;;;;;7.18;2.45;;;-0.90;99.90;;;;;;4444900;32;20583;-66
2022/01/11 18:21:44;;;;;;;2.25;2.05;;;-1.00;99.90;;;;;;4444162;32;20076;-66
2022/01/11 18:24:10;;;;;;;1.00;0.98;;;-1.10;99.90;;;;;;4439891;32;20561;-66
2022/01/11 18:26:36;;;;;;;16.40;1.80;;;-1.10;99.90;;;;;;4441849;32;20101;-66
2022/01/11 18:29:01;;;;;;;0.70;0.70;;;-1.00;99.90;;;;;;4442624;32;20109;-66
2022/01/11 18:31:30;;;;;;;1.90;1.75;;;-1.00;99.90;;;;;;4443213;32;20084;-65
2022/01/11 18:33:57;;;;;;;1.90;1.00;;;-1.00;99.90;;;;;;4443091;32;20092;-65
2022/01/11 18:36:22;;;;;;;1.48;1.37;;;-1.00;99.90;;;;;;4441760;32;20158;-66
2022/01/11 18:38:48;;;;;;;1.05;0.98;;;-1.10;99.90;;;;;;4444949;32;20481;-65
2022/01/11 18:41:14;;;;;;;1.87;1.50;;;-0.90;99.90;;;;;;4443940;32;20072;-65
2022/01/11 18:43:39;;;;;;;0.98;0.98;;;-0.80;99.90;;;;;;4443624;32;20124;-65
2022/01/11 18:46:05;;;;;;;2.20;1.37;;;-0.80;99.90;;;;;;4443707;32;20424;-65
2022/01/11 18:48:31;;;;;;;1.98;1.85;;;-1.00;99.90;;;;;;4444581;32;20077;-65
2022/01/11 18:50:56;;;;;;;1.23;1.23;;;-1.10;99.90;;;;;;4443595;32;20520;-65
2022/01/11 18:53:22;;;;;;;0.65;0.65;;;-1.00;99.90;;;;;;4441395;32;20439;-65
2022/01/11 18:55:48;;;;;;;7.05;2.58;;;-1.00;99.90;;;;;;4440519;32;20077;-65
2022/01/11 18:58:14;;;;;;;13.82;3.00;;;-1.00;99.90;;;;;;4442220;32;20065;-65
2022/01/11 19:00:39;;;;;;;1.02;0.98;;;-0.90;99.90;;;;;;4442343;32;20114;-65
2022/01/11 19:03:06;;;;;;;2.72;1.58;;;-0.90;99.90;;;;;;4442658;32;20077;-65
2022/01/11 19:05:32;;;;;;;10.13;1.80;;;-0.90;99.90;;;;;;4444091;32;20073;-65
2022/01/11 19:08:01;;;;;;;1.48;1.37;;;-0.90;99.90;;;;;;4441293;32;20097;-65
2022/01/11 19:10:29;;;;;;;0.85;0.85;;;-0.90;99.90;;;;;;4438605;32;20556;-65
2022/01/11 19:12:54;;;;;;;1.20;1.12;;;-0.80;99.90;;;;;;4440526;32;20105;-65
2022/01/11 19:15:22;;;;;;;0.68;0.68;;;-0.90;99.90;;;;;;4442868;32;20196;-65
2022/01/11 19:17:47;;;;;;;1.37;1.20;;;-1.00;99.90;;;;;;4442142;32;20061;-66
2022/01/11 19:20:13;;;;;;;2.33;1.60;;;-0.90;99.90;;;;;;4443324;32;20534;-66
2022/01/11 19:22:38;;;;;;;2.15;1.98;;;-0.90;99.90;;;;;;4444350;32;20089;-66
2022/01/11 19:25:07;;;;;;;0.60;0.60;;;-1.00;99.90;;;;;;4441286;32;20093;-65
2022/01/11 19:27:35;;;;;;;1.60;1.50;;;-0.80;99.90;;;;;;4441932;32;20489;-66
2022/01/11 19:30:03;;;;;;;1.12;1.02;;;-0.80;99.90;;;;;;4440502;32;20120;-65
2022/01/11 19:32:29;;;;;;;1.95;1.65;;;-0.70;99.90;;;;;;4443722;32;20070;-65
2022/01/11 19:34:55;;;;;;;2.65;2.15;;;-0.60;99.90;;;;;;4442649;32;20073;-66
2022/01/11 19:37:22;;;;;;;1.40;1.30;;;-0.60;99.90;;;;;;4440634;32;20077;-65
2022/01/11 19:39:53;;;;;;;1.35;1.27;;;-0.80;99.90;;;;;;4442635;32;20426;-64
2022/01/11 19:42:20;;;;;;;1.80;1.52;;;-0.80;99.90;;;;;;4442575;32;21381;-65
2022/01/11 19:44:45;;;;;;;1.00;1.00;;;-0.70;99.90;;;;;;4443522;32;20084;-65
2022/01/11 19:47:16;;;;;;;0.80;0.80;;;-0.60;99.90;;;;;;4443883;32;20524;-66
2022/01/11 19:49:44;;;;;;;1.50;1.20;;;-0.60;99.90;;;;;;4445101;32;20084;-66
2022/01/11 19:52:09;;;;;;;4.03;2.25;;;-0.60;99.90;;;;;;4440928;32;20116;-66
2022/01/11 19:54:35;;;;;;;1.30;1.20;;;-0.60;99.90;;;;;;4443524;32;20073;-65
2022/01/11 19:57:00;;;;;;;1.75;1.30;;;-0.60;99.90;;;;;;4442561;32;20065;-66
2022/01/11 19:59:26;;;;;;;1.00;1.00;;;-0.60;99.90;;;;;;4442353;32;20608;-65
2022/01/11 20:01:51;;;;;;;0.80;0.80;;;-0.70;99.90;;;;;;4441204;32;20124;-65
2022/01/11 20:04:17;;;;;;;0.60;0.60;;;-0.70;99.90;;;;;;4441482;32;20081;-65
2022/01/11 20:06:43;;;;;;;0.65;0.65;;;-0.70;99.90;;;;;;4442398;32;20093;-65
2022/01/11 20:09:09;;;;;;;2.17;0.93;;;-0.90;99.90;;;;;;4442293;32;20513;-65
2022/01/11 20:11:39;;;;;;;0.90;0.90;;;-0.80;99.90;;;;;;4443197;32;20060;-65
2022/01/11 20:14:05;;;;;;;1.15;1.15;;;-0.70;99.90;;;;;;4441980;32;20064;-66
2022/01/11 20:16:30;;;;;;;6.22;1.67;;;-0.70;99.90;;;;;;4442696;32;20058;-67
2022/01/11 20:18:56;;;;;;;2.17;1.12;;;-0.70;99.90;;;;;;4442246;32;20135;-66
2022/01/11 20:21:25;;;;;;;0.88;0.88;;;-0.70;99.90;;;;;;4441580;32;20419;-65
2022/01/11 20:27:36;;;;;;;3.47;2.08;;;-0.70;99.90;;;;;;4428769;32;20073;-66
2022/01/11 20:29:22;;;;;;;0.68;0.68;;;-0.60;99.90;;;;;;4429934;32;20090;-65
2022/01/11 20:31:47;;;;;;;1.48;1.12;;;-0.60;99.90;;;;;;4441077;32;20065;-65
2022/01/11 20:34:13;;;;;;;3.92;2.12;;;-0.60;99.90;;;;;;4441721;32;20400;-66
2022/01/11 20:36:38;;;;;;;0.65;0.65;;;-0.60;99.90;;;;;;4441556;32;20089;-65
2022/01/11 20:39:04;;;;;;;6.53;3.12;;;-0.50;99.90;;;;;;4441432;32;20128;-67
2022/01/11 20:41:31;;;;;;;0.80;0.80;;;-0.50;99.90;;;;;;4440552;32;20101;-66
2022/01/11 20:43:56;;;;;;;0.60;0.60;;;-0.50;99.90;;;;;;4439248;32;20085;-66
2022/01/11 20:46:22;;;;;;;3.50;2.72;;;-0.50;99.90;;;;;;4442205;32;20085;-66
2022/01/11 20:48:49;;;;;;;3.25;1.25;;;-0.50;99.90;;;;;;4439788;32;20119;-66
2022/01/11 20:51:16;;;;;;;1.70;1.42;;;-0.50;99.90;;;;;;4441887;32;20489;-66
2022/01/11 20:53:42;;;;;;;3.17;1.48;;;-0.50;99.90;;;;;;4441758;32;20073;-66
2022/01/11 20:56:14;;;;;;;4.45;2.15;;;-0.50;99.90;;;;;;4438664;32;20081;-65
2022/01/11 20:58:41;;;;;;;13.00;2.25;;;-0.50;99.90;;;;;;4440209;32;20136;-66
2022/01/11 21:01:10;;;;;;;1.40;1.30;;;-0.40;99.90;;;;;;4441856;32;20196;-66
2022/01/11 21:03:37;;;;;;;3.83;1.70;;;-0.30;99.90;;;;;;4441152;32;20416;-66
2022/01/11 21:06:04;;;;;;;0.43;0.43;;;-0.40;99.90;;;;;;4442547;32;20069;-66
2022/01/11 21:08:30;;;;;;;2.37;1.48;;;-0.40;99.90;;;;;;4440150;32;20469;-66
2022/01/11 21:10:55;;;;;;;1.33;1.27;;;-0.40;99.90;;;;;;4441748;32;20069;-66
2022/01/11 21:13:25;;;;;;;4.55;2.15;;;-0.40;99.90;;;;;;4442100;32;20072;-65
2022/01/11 21:20:19;;;;;;;0.80;0.80;;;-0.40;99.90;;;;;;4440853;32;20190;-66
2022/01/11 21:21:05;;;;;;;1.20;1.15;;;-0.40;99.90;;;;;;4436301;32;20090;-65
2022/01/11 21:23:36;;;;;;;2.00;1.83;;;-0.40;99.90;;;;;;4441761;32;20073;-66
2022/01/11 21:26:04;;;;;;;0.60;0.60;;;-0.40;99.90;;;;;;4440348;32;20505;-66
2022/01/11 21:28:31;;;;;;;13.27;1.52;;;-0.40;99.90;;;;;;4439810;32;20065;-65
2022/01/11 21:30:57;;;;;;;3.60;2.05;;;-0.40;99.90;;;;;;4441286;32;20064;-66
2022/01/11 21:33:24;;;;;;;1.20;1.08;;;-0.40;99.90;;;;;;4440873;32;20118;-65
2022/01/11 21:35:51;;;;;;;1.70;1.60;;;-0.40;99.90;;;;;;4441220;32;20089;-64
2022/01/11 21:38:16;;;;;;;1.30;1.20;;;-0.40;99.90;;;;;;4440091;32;20077;-65
2022/01/11 21:40:44;;;;;;;0.80;0.80;;;-0.50;99.90;;;;;;4442157;32;20100;-65
2022/01/11 21:43:10;;;;;;;1.50;1.40;;;-0.50;99.90;;;;;;4441166;32;20073;-65
2022/01/11 21:45:36;;;;;;;1.42;1.33;;;-0.50;99.90;;;;;;4442163;32;20093;-65
2022/01/11 21:48:02;;;;;;;0.50;0.50;;;-0.50;99.90;;;;;;4444372;32;20139;-67
2022/01/11 21:50:28;;;;;;;11.35;4.05;;;-0.60;99.90;;;;;;4444071;32;20124;-66
2022/01/11 21:52:58;;;;;;;1.12;1.10;;;-0.50;99.90;;;;;;4443749;32;20123;-65
2022/01/11 21:55:25;;;;;;;6.53;2.03;;;-0.60;99.90;;;;;;4443673;32;20069;-66
2022/01/11 21:57:51;;;;;;;1.67;1.58;;;-0.50;99.90;;;;;;4443411;32;20594;-65
2022/01/11 22:00:17;;;;;;;0.77;0.77;;;-0.60;99.90;;;;;;4443255;32;20523;-66
2022/01/11 22:02:43;;;;;;;0.65;0.65;;;-0.60;99.90;;;;;;4445746;32;20084;-65
2022/01/11 22:05:09;;;;;;;0.93;0.93;;;-0.70;99.90;;;;;;4444104;32;20422;-65
2022/01/11 22:07:35;;;;;;;1.98;1.85;;;-0.60;99.90;;;;;;4445754;32;20077;-66
2022/01/11 22:10:02;;;;;;;2.85;2.58;;;-0.50;99.90;;;;;;4443610;32;20066;-66
2022/01/11 22:12:29;;;;;;;2.15;1.90;;;-0.50;99.90;;;;;;4444843;32;20096;-66
2022/01/11 22:15:13;;;;;;;1.02;1.02;;;-0.50;99.90;;;;;;4444861;32;20612;-66
2022/01/11 22:17:42;;;;;;;1.25;1.20;;;-0.60;99.90;;;;;;4443329;32;20094;-66
2022/01/11 22:20:14;;;;;;;0.90;0.90;;;-0.50;99.90;;;;;;4442176;32;20533;-66
2022/01/11 22:22:41;;;;;;;1.48;1.37;;;-0.70;99.90;;;;;;4445048;32;20584;-66
2022/01/11 22:25:09;;;;;;;1.48;1.37;;;-0.60;99.90;;;;;;4444655;32;20088;-65
2022/01/11 22:27:35;;;;;;;2.37;1.92;;;-0.60;99.90;;;;;;4441925;32;20086;-65
2022/01/11 22:30:00;;;;;;;3.53;2.60;;;-0.50;99.90;;;;;;4441902;32;20442;-66
2022/01/11 22:32:26;;;;;;;30.33;3.15;;;-0.60;99.90;;;;;;4443202;32;20068;-66
2022/01/11 22:34:52;;;;;;;2.62;2.28;;;-0.60;99.90;;;;;;4443762;32;20066;-65
2022/01/11 22:37:18;;;;;;;1.75;1.55;;;-0.50;99.90;;;;;;4444525;32;20077;-66
2022/01/11 22:39:46;;;;;;;3.87;2.97;;;-0.40;99.90;;;;;;4442590;32;20483;-66
2022/01/11 22:42:16;;;;;;;0.75;0.75;;;-0.40;99.90;;;;;;4445008;32;20085;-66
2022/01/11 22:44:42;;;;;;;1.65;1.30;;;-0.50;99.90;;;;;;4442655;32;20065;-66
2022/01/11 22:47:08;;;;;;;0.93;0.93;;;-0.50;99.90;;;;;;4442082;32;20069;-66
2022/01/11 22:49:34;;;;;;;0.90;0.90;;;-0.50;99.90;;;;;;4441134;32;20089;-66
2022/01/11 22:52:06;;;;;;;3.40;1.48;;;-0.50;99.90;;;;;;4444241;32;20175;-65
2022/01/11 22:54:33;;;;;;;0.85;0.85;;;-0.50;99.90;;;;;;4443233;32;20065;-67
2022/01/11 22:56:59;;;;;;;0.75;0.75;;;-0.50;99.90;;;;;;4440584;32;20084;-66
2022/01/11 22:59:24;;;;;;;1.77;1.67;;;-0.50;99.90;;;;;;4441920;32;20526;-66